Time;durP1;ratioP1;P1;durP2;ratioP2;P2;SDS_P1;SDS_P2;PMS_P1;PMS_P2;Temp;Humidity;BMP_temperature;BMP_pressure;BME280_temperature;BME280_humidity;BME280_pressure;Samples;Min_cycle;Max_cycle;Signal;HPM_P1;HPM_P2
2022/08/30 00:03:20;;;;;;;5.88;5.30;;;;;;;19.80;100.00;96388.63;5001816;28;20428;-80
2022/08/30 00:05:49;;;;;;;6.20;5.53;;;;;;;19.82;100.00;96400.09;5025102;28;20238;-80
2022/08/30 00:08:16;;;;;;;7.10;5.63;;;;;;;19.81;100.00;96393.00;5012610;28;20230;-80
2022/08/30 00:10:44;;;;;;;9.45;6.03;;;;;;;19.85;100.00;96401.47;5007538;28;20200;-80
2022/08/30 00:13:13;;;;;;;6.55;5.85;;;;;;;19.83;100.00;96400.91;5016970;28;20264;-77
2022/08/30 00:15:41;;;;;;;7.78;5.82;;;;;;;19.85;100.00;96391.31;5018130;28;20273;-80
2022/08/30 00:18:09;;;;;;;7.68;5.85;;;;;;;19.78;100.00;96390.03;5004632;28;20221;-80
2022/08/30 00:20:38;;;;;;;6.15;5.63;;;;;;;19.70;100.00;96382.41;5007088;28;20207;-80
2022/08/30 00:23:06;;;;;;;6.38;5.78;;;;;;;19.70;100.00;96387.91;5003860;28;20223;-80
2022/08/30 00:25:34;;;;;;;6.07;5.47;;;;;;;19.66;100.00;96382.16;5002227;28;20208;-81
2022/08/30 00:28:01;;;;;;;5.85;5.25;;;;;;;19.65;100.00;96380.53;5009056;28;20199;-78
2022/08/30 00:30:28;;;;;;;5.97;5.47;;;;;;;19.71;100.00;96379.41;5005406;28;20206;-79
2022/08/30 00:32:55;;;;;;;6.82;5.53;;;;;;;19.71;100.00;96381.31;5005501;28;20289;-78
2022/08/30 00:35:23;;;;;;;5.85;5.22;;;;;;;19.74;100.00;96383.47;5015875;28;20214;-80
2022/08/30 00:37:51;;;;;;;5.63;5.13;;;;;;;19.68;100.00;96379.97;5005257;28;20253;-80
2022/08/30 00:40:21;;;;;;;6.25;5.50;;;;;;;19.63;100.00;96389.06;5024806;28;20214;-79
2022/08/30 00:42:48;;;;;;;7.82;5.72;;;;;;;19.72;100.00;96380.22;5021075;28;20238;-80
2022/08/30 00:45:18;;;;;;;7.65;5.82;;;;;;;19.54;100.00;96379.81;4998430;28;20203;-80
2022/08/30 00:47:46;;;;;;;6.57;5.63;;;;;;;19.44;100.00;96379.84;5020677;28;20290;-80
2022/08/30 00:50:15;;;;;;;6.13;5.53;;;;;;;19.48;100.00;96380.94;5005803;28;20218;-80
2022/08/30 00:52:46;;;;;;;7.72;5.60;;;;;;;19.49;100.00;96379.00;5022850;28;20212;-80
2022/08/30 00:55:16;;;;;;;6.15;5.57;;;;;;;19.48;100.00;96378.19;5019158;28;20295;-80
2022/08/30 00:57:47;;;;;;;6.40;5.80;;;;;;;19.46;100.00;96377.66;5001094;28;20323;-80
2022/08/30 01:00:16;;;;;;;7.45;5.68;;;;;;;19.51;100.00;96377.63;5016356;28;20203;-80
2022/08/30 01:02:44;;;;;;;6.20;5.60;;;;;;;19.58;100.00;96380.03;5018576;28;20235;-80
2022/08/30 01:05:12;;;;;;;6.32;5.70;;;;;;;19.67;100.00;96383.81;5003876;28;20295;-80
2022/08/30 01:07:40;;;;;;;5.80;4.72;;;;;;;19.69;100.00;96386.25;5007502;28;20204;-80
2022/08/30 01:10:10;;;;;;;9.88;6.00;;;;;;;19.66;100.00;96379.41;5020108;28;20282;-79
2022/08/30 01:12:38;;;;;;;6.38;5.78;;;;;;;19.57;100.00;96387.44;5019400;28;20255;-79
2022/08/30 01:15:08;;;;;;;7.63;5.28;;;;;;;19.51;100.00;96377.63;5015497;28;20218;-81
2022/08/30 01:17:35;;;;;;;6.05;5.45;;;;;;;19.43;100.00;96380.13;4998907;28;20302;-80
2022/08/30 01:20:08;;;;;;;7.80;5.50;;;;;;;19.35;100.00;96387.03;5020212;28;20221;-79
2022/08/30 01:22:42;;;;;;;8.57;5.60;;;;;;;19.33;100.00;96383.75;5004987;28;20231;-80
2022/08/30 01:25:13;;;;;;;7.35;5.60;;;;;;;19.31;100.00;96388.69;5002736;28;20215;-79
2022/08/30 01:27:44;;;;;;;9.75;5.47;;;;;;;19.33;100.00;96399.38;5019093;28;20212;-80
2022/08/30 01:30:13;;;;;;;7.28;5.53;;;;;;;19.33;100.00;96394.72;5023427;28;20202;-80
2022/08/30 01:32:42;;;;;;;6.25;5.55;;;;;;;19.26;100.00;96391.47;5022652;28;20199;-80
2022/08/30 01:35:11;;;;;;;6.88;6.18;;;;;;;19.23;100.00;96394.78;5005352;28;20204;-80
2022/08/30 01:37:38;;;;;;;7.65;5.65;;;;;;;19.25;100.00;96400.78;5001097;28;20231;-80
2022/08/30 01:40:07;;;;;;;5.97;5.33;;;;;;;19.22;100.00;96399.44;5018109;28;20225;-79
2022/08/30 01:42:36;;;;;;;5.68;5.05;;;;;;;19.19;100.00;96393.72;5018197;28;20318;-80
2022/08/30 01:45:04;;;;;;;6.18;5.40;;;;;;;19.15;100.00;96388.00;4999058;28;20210;-80
2022/08/30 01:47:32;;;;;;;7.40;5.22;;;;;;;19.16;100.00;96389.63;5016547;28;20200;-80
2022/08/30 01:49:59;;;;;;;9.90;5.32;;;;;;;19.08;100.00;96392.16;5017957;28;20204;-80
2022/08/30 01:52:27;;;;;;;5.97;5.37;;;;;;;19.08;100.00;96398.44;5025322;28;20238;-79
2022/08/30 01:54:54;;;;;;;6.07;5.37;;;;;;;19.04;100.00;96402.03;5003628;28;20208;-80
2022/08/30 01:57:25;;;;;;;6.55;5.30;;;;;;;19.04;100.00;96391.09;5017206;28;20229;-76
2022/08/30 01:59:54;;;;;;;7.30;5.78;;;;;;;19.04;100.00;96388.34;5019209;28;20235;-76
2022/08/30 02:02:25;;;;;;;5.70;5.20;;;;;;;19.04;100.00;96391.09;5019186;28;20250;-75
2022/08/30 02:04:53;;;;;;;5.50;5.00;;;;;;;19.04;100.00;96388.34;5018585;28;20270;-75
2022/08/30 02:07:20;;;;;;;6.07;5.17;;;;;;;19.00;100.00;96390.00;5005483;28;20215;-75
2022/08/30 02:09:47;;;;;;;5.75;5.15;;;;;;;19.05;100.00;96398.19;5003647;28;20208;-75
2022/08/30 02:12:14;;;;;;;5.43;4.93;;;;;;;19.07;100.00;96396.81;5018416;28;20210;-75
2022/08/30 02:14:41;;;;;;;5.43;4.93;;;;;;;19.11;100.00;96397.06;5004734;28;20246;-75
2022/08/30 02:17:14;;;;;;;7.05;5.03;;;;;;;19.16;100.00;96391.53;5000614;28;20223;-75
2022/08/30 02:19:42;;;;;;;7.87;4.90;;;;;;;19.20;100.00;96389.91;5021338;28;20211;-75
2022/08/30 02:22:09;;;;;;;5.95;5.20;;;;;;;19.18;100.00;96390.16;5005966;28;20195;-75
2022/08/30 02:24:36;;;;;;;5.50;5.00;;;;;;;19.20;100.00;96393.44;5021620;28;20207;-75
2022/08/30 02:27:03;;;;;;;6.57;5.20;;;;;;;19.20;100.00;96395.38;5005893;28;20207;-76
2022/08/30 02:29:30;;;;;;;5.80;5.30;;;;;;;19.22;100.00;96395.91;5005589;28;20246;-76
2022/08/30 02:31:58;;;;;;;6.55;5.30;;;;;;;19.23;100.00;96392.03;5016753;28;20230;-76
2022/08/30 02:34:26;;;;;;;6.22;5.60;;;;;;;19.21;100.00;96392.34;5023355;28;20207;-76
2022/08/30 02:36:53;;;;;;;6.07;5.13;;;;;;;19.08;100.00;96383.94;5007438;28;20214;-75
2022/08/30 02:39:21;;;;;;;5.20;4.70;;;;;;;19.07;100.00;96382.28;5007137;28;20219;-75
2022/08/30 02:41:48;;;;;;;5.35;4.85;;;;;;;18.94;100.00;96372.00;5029246;28;20208;-75
2022/08/30 02:44:15;;;;;;;5.47;4.97;;;;;;;18.87;100.00;96375.88;5027915;28;20230;-75
2022/08/30 02:46:42;;;;;;;6.53;5.50;;;;;;;18.84;100.00;96378.34;5022239;28;20205;-75
2022/08/30 02:49:10;;;;;;;6.03;5.43;;;;;;;18.77;100.00;96375.91;5005953;28;20212;-75
2022/08/30 02:51:38;;;;;;;6.32;5.47;;;;;;;18.72;100.00;96367.72;5008999;28;20199;-76
2022/08/30 02:54:06;;;;;;;6.03;5.43;;;;;;;18.68;100.00;96366.66;5004166;28;20241;-75
2022/08/30 02:56:33;;;;;;;5.45;4.95;;;;;;;18.66;100.00;96371.59;5002515;28;20224;-75
2022/08/30 02:59:00;;;;;;;7.93;5.13;;;;;;;18.65;100.00;96361.75;5026299;28;20198;-75
2022/08/30 03:01:27;;;;;;;5.73;5.23;;;;;;;18.53;100.00;96364.78;5014395;28;20257;-74
2022/08/30 03:03:54;;;;;;;6.23;4.67;;;;;;;18.47;100.00;96357.69;5014800;28;20226;-76
2022/08/30 03:06:21;;;;;;;6.70;5.30;;;;;;;18.38;100.00;96361.28;5005479;28;20203;-75
2022/08/30 03:08:50;;;;;;;6.23;5.63;;;;;;;18.35;100.00;96353.66;5003600;28;20215;-78
2022/08/30 03:11:17;;;;;;;5.63;5.13;;;;;;;18.38;100.00;96353.88;4999435;28;20270;-76
2022/08/30 03:13:44;;;;;;;6.07;5.50;;;;;;;18.41;100.00;96363.47;5025673;28;20200;-75
2022/08/30 03:16:11;;;;;;;6.17;5.30;;;;;;;18.31;100.00;96349.81;5003375;28;20200;-75
2022/08/30 03:18:38;;;;;;;7.37;5.77;;;;;;;18.22;100.00;96349.56;5005782;28;20217;-75
2022/08/30 03:21:10;;;;;;;6.53;5.87;;;;;;;18.19;100.00;96347.44;5024420;28;20212;-74
2022/08/30 03:23:37;;;;;;;6.13;5.53;;;;;;;18.21;100.00;96350.66;5024927;28;20223;-75
2022/08/30 03:26:05;;;;;;;7.40;6.70;;;;;;;18.25;100.00;96342.75;5025380;28;20208;-76
2022/08/30 03:28:33;;;;;;;6.37;5.70;;;;;;;18.24;100.00;96354.78;5007759;28;20208;-75
2022/08/30 03:31:00;;;;;;;6.63;5.23;;;;;;;18.27;100.00;96348.75;5018625;28;20207;-75
2022/08/30 03:33:27;;;;;;;6.53;5.50;;;;;;;18.31;100.00;96349.81;5004775;28;20214;-75
2022/08/30 03:35:54;;;;;;;5.90;4.93;;;;;;;18.35;100.00;96359.13;5017619;28;20208;-75
2022/08/30 03:38:21;;;;;;;5.33;4.83;;;;;;;18.40;100.00;96359.09;5006415;28;20246;-75
2022/08/30 03:40:48;;;;;;;6.40;5.17;;;;;;;18.37;100.00;96354.97;5024019;28;20218;-75
2022/08/30 03:43:16;;;;;;;6.10;5.20;;;;;;;18.23;100.00;96340.28;4995955;28;20242;-76
2022/08/30 03:45:44;;;;;;;6.33;5.43;;;;;;;18.25;100.00;96348.22;5003567;28;20238;-75
2022/08/30 03:48:11;;;;;;;7.43;5.27;;;;;;;18.14;100.00;96341.94;5005048;28;20199;-75
2022/08/30 03:50:39;;;;;;;6.03;5.43;;;;;;;18.06;100.00;96340.63;5005646;28;20212;-76
2022/08/30 03:53:06;;;;;;;7.40;5.60;;;;;;;18.09;100.00;96351.00;5026097;28;20207;-74
2022/08/30 03:55:33;;;;;;;7.40;5.47;;;;;;;18.05;100.00;96347.16;5020251;28;20200;-75
2022/08/30 03:58:00;;;;;;;5.63;5.03;;;;;;;18.07;100.00;96349.63;5022984;28;20228;-75
2022/08/30 04:00:29;;;;;;;5.50;4.93;;;;;;;18.03;100.00;96349.34;5009566;28;20210;-75
2022/08/30 04:02:56;;;;;;;5.37;4.87;;;;;;;18.02;100.00;96345.00;5008635;28;20294;-75
2022/08/30 04:05:23;;;;;;;5.97;5.00;;;;;;;18.05;100.00;96363.56;5014874;28;20203;-74
2022/08/30 04:07:50;;;;;;;6.47;5.53;;;;;;;17.87;100.00;96355.13;5005842;28;20196;-75
2022/08/30 04:10:20;;;;;;;6.17;5.27;;;;;;;17.82;100.00;96346.97;5021616;28;20203;-75
2022/08/30 04:12:47;;;;;;;6.43;5.77;;;;;;;17.88;100.00;96352.13;5003922;28;20230;-77
2022/08/30 04:15:15;;;;;;;5.90;5.37;;;;;;;17.93;100.00;96343.13;5001440;28;20204;-77
2022/08/30 04:17:43;;;;;;;6.30;5.00;;;;;;;17.98;100.00;96349.38;5022501;28;20211;-75
2022/08/30 04:20:11;;;;;;;5.63;5.13;;;;;;;18.02;100.00;96347.75;5025981;28;20203;-74
2022/08/30 04:22:38;;;;;;;6.07;5.47;;;;;;;18.02;100.00;96361.41;5008689;28;20208;-75
2022/08/30 04:25:06;;;;;;;5.73;5.10;;;;;;;17.98;100.00;96340.38;5021586;28;20306;-75
2022/08/30 04:27:34;;;;;;;5.50;4.87;;;;;;;17.99;100.00;96351.03;5025930;28;20218;-75
2022/08/30 04:30:01;;;;;;;5.53;5.00;;;;;;;18.03;100.00;96348.56;5009247;28;20266;-75
2022/08/30 04:32:28;;;;;;;5.67;5.07;;;;;;;18.04;100.00;96348.25;5019952;28;20230;-74
2022/08/30 04:34:58;;;;;;;5.53;5.03;;;;;;;18.05;100.00;96349.91;5014792;28;20199;-76
2022/08/30 04:37:25;;;;;;;5.53;4.93;;;;;;;18.05;100.00;96358.09;5006063;28;20482;-74
2022/08/30 04:39:56;;;;;;;5.30;4.80;;;;;;;18.15;100.00;96365.47;5002970;28;20314;-75
2022/08/30 04:42:23;;;;;;;5.50;5.00;;;;;;;18.22;100.00;96354.22;5000628;28;20204;-74
2022/08/30 04:44:50;;;;;;;5.30;4.80;;;;;;;18.28;100.00;96364.06;5023731;28;20227;-75
2022/08/30 04:47:18;;;;;;;6.87;5.30;;;;;;;18.20;100.00;96361.91;5019550;28;20212;-74
2022/08/30 04:49:45;;;;;;;5.43;4.93;;;;;;;18.02;100.00;96364.13;5020408;28;20234;-75
2022/08/30 04:52:13;;;;;;;7.37;5.60;;;;;;;17.97;100.00;96366.03;5018943;28;20283;-75
2022/08/30 04:54:40;;;;;;;6.37;5.33;;;;;;;18.08;100.00;96371.22;4999278;28;20203;-75
2022/08/30 04:57:07;;;;;;;6.77;5.03;;;;;;;18.03;100.00;96360.28;5000165;28;20238;-74
2022/08/30 04:59:35;;;;;;;5.67;5.03;;;;;;;18.14;100.00;96366.56;5016902;28;20225;-74
2022/08/30 05:02:02;;;;;;;6.63;4.80;;;;;;;18.18;100.00;96375.03;5006166;28;20215;-75
2022/08/30 05:04:29;;;;;;;8.97;4.90;;;;;;;18.27;100.00;96368.72;5021311;28;20231;-75
2022/08/30 05:06:56;;;;;;;5.23;4.73;;;;;;;18.32;100.00;96373.34;5010790;28;20210;-75
2022/08/30 05:09:25;;;;;;;6.13;4.93;;;;;;;18.34;100.00;96377.44;5015277;28;20274;-74
2022/08/30 05:11:52;;;;;;;6.27;4.93;;;;;;;18.37;100.00;96367.88;5018960;28;20204;-74
2022/08/30 05:14:19;;;;;;;4.87;4.10;;;;;;;18.38;100.00;96373.03;5008570;28;20201;-75
2022/08/30 05:16:46;;;;;;;6.43;5.07;;;;;;;18.42;100.00;96384.22;5016367;28;20307;-75
2022/08/30 05:19:13;;;;;;;5.70;5.20;;;;;;;18.41;100.00;96371.66;5008283;28;20302;-75
2022/08/30 05:21:40;;;;;;;5.73;4.60;;;;;;;18.46;100.00;96374.34;5011244;28;20216;-75
2022/08/30 05:24:08;;;;;;;6.83;4.90;;;;;;;18.48;100.00;96389.41;5017704;28;20231;-76
2022/08/30 05:26:38;;;;;;;5.87;5.33;;;;;;;18.49;100.00;96380.09;5010132;28;20203;-74
2022/08/30 05:29:05;;;;;;;8.00;5.17;;;;;;;18.46;100.00;96390.75;5003700;28;20203;-74
2022/08/30 05:31:35;;;;;;;5.30;4.80;;;;;;;18.43;100.00;96391.34;5023412;28;20290;-75
2022/08/30 05:34:02;;;;;;;6.17;4.90;;;;;;;18.48;100.00;96394.03;5013353;28;20310;-74
2022/08/30 05:36:32;;;;;;;6.33;5.10;;;;;;;18.42;100.00;96390.53;5018655;28;20214;-75
2022/08/30 05:39:00;;;;;;;6.03;4.60;;;;;;;18.41;100.00;96393.53;5015417;28;20239;-75
2022/08/30 05:41:27;;;;;;;5.40;4.67;;;;;;;18.39;100.00;96387.50;5001902;28;20223;-75
2022/08/30 05:43:57;;;;;;;4.87;4.47;;;;;;;18.40;100.00;96400.91;5031588;28;20219;-75
2022/08/30 05:46:28;;;;;;;8.70;6.80;;;;;;;18.33;100.00;96400.38;5005759;28;20215;-74
2022/08/30 05:48:56;;;;;;;7.87;5.10;;;;;;;18.32;100.00;96395.19;5023682;28;20266;-74
2022/08/30 05:51:25;;;;;;;5.47;4.97;;;;;;;18.30;100.00;96394.66;5018193;28;20239;-75
2022/08/30 05:53:53;;;;;;;5.87;5.27;;;;;;;18.28;100.00;96394.13;5021820;28;20214;-74
2022/08/30 05:56:22;;;;;;;6.47;4.67;;;;;;;18.29;100.00;96395.78;5022853;28;20219;-74
2022/08/30 05:58:49;;;;;;;8.17;4.90;;;;;;;18.32;100.00;96395.19;5011929;28;20210;-74
2022/08/30 06:01:25;;;;;;;7.83;5.03;;;;;;;18.39;100.00;96390.25;5022772;28;20215;-75
2022/08/30 06:03:53;;;;;;;8.20;5.23;;;;;;;18.48;100.00;96394.03;5006079;28;20231;-75
2022/08/30 06:06:20;;;;;;;6.13;4.80;;;;;;;18.55;100.00;96386.34;5002235;28;20199;-74
2022/08/30 06:08:48;;;;;;;6.30;5.07;;;;;;;18.69;100.00;96390.19;5020668;28;20311;-74
2022/08/30 06:11:18;;;;;;;5.63;4.90;;;;;;;18.70;100.00;96391.81;5022424;28;20230;-74
2022/08/30 06:13:45;;;;;;;6.47;5.10;;;;;;;18.77;100.00;96394.25;5021924;28;20208;-75
2022/08/30 06:16:13;;;;;;;5.90;4.60;;;;;;;18.63;100.00;96374.06;4999842;28;20735;-74
2022/08/30 06:18:41;;;;;;;5.80;5.20;;;;;;;18.63;100.00;96383.06;5021805;28;20196;-74
2022/08/30 06:21:15;;;;;;;6.73;5.70;;;;;;;18.70;100.00;96389.09;5024943;28;20298;-74
2022/08/30 06:23:43;;;;;;;7.60;5.40;;;;;;;18.73;100.00;96383.03;5001139;28;20227;-74
2022/08/30 06:26:10;;;;;;;6.27;5.37;;;;;;;18.73;100.00;96393.16;5010381;28;20199;-74
2022/08/30 06:28:37;;;;;;;8.27;5.20;;;;;;;18.75;100.00;96390.97;5005118;28;20230;-75
2022/08/30 06:31:06;;;;;;;5.20;4.70;;;;;;;18.77;100.00;96391.50;5006278;28;20211;-74
2022/08/30 06:33:33;;;;;;;9.23;5.37;;;;;;;18.73;100.00;96385.75;5006443;28;20289;-74
2022/08/30 06:36:03;;;;;;;8.87;5.83;;;;;;;18.67;100.00;96381.44;5027902;28;20211;-75
2022/08/30 06:38:31;;;;;;;7.80;5.35;;;;;;;18.69;100.00;96378.41;5017937;28;20243;-74
2022/08/30 06:40:58;;;;;;;7.53;5.47;;;;;;;18.67;100.00;96375.97;5022662;28;20207;-75
2022/08/30 06:43:25;;;;;;;8.48;5.55;;;;;;;18.73;100.00;96374.81;4995681;28;20204;-75
2022/08/30 06:45:53;;;;;;;12.93;5.75;;;;;;;18.73;100.00;96377.56;5004907;28;20204;-74
2022/08/30 06:48:20;;;;;;;8.30;5.33;;;;;;;18.72;100.00;96384.13;5021243;28;20254;-75
2022/08/30 06:50:53;;;;;;;8.05;5.68;;;;;;;18.77;100.00;96386.84;5006917;28;20200;-76
2022/08/30 06:53:22;;;;;;;9.07;6.17;;;;;;;18.75;100.00;96386.31;5006801;28;20211;-75
2022/08/30 06:55:56;;;;;;;12.20;7.60;;;;;;;18.72;100.00;96384.13;5023509;28;20207;-76
2022/08/30 06:58:23;;;;;;;17.13;12.73;;;;;;;18.73;100.00;96395.88;5007033;28;20201;-75
2022/08/30 07:00:50;;;;;;;15.20;10.43;;;;;;;18.64;100.00;96387.44;5021499;28;20214;-75
2022/08/30 07:03:17;;;;;;;11.97;8.40;;;;;;;18.52;100.00;96384.19;5004614;28;20349;-75
2022/08/30 07:05:44;;;;;;;7.13;6.40;;;;;;;18.40;100.00;96380.94;5002601;28;20220;-75
2022/08/30 07:08:11;;;;;;;8.10;6.10;;;;;;;18.36;100.00;96379.88;5023144;28;20203;-75
2022/08/30 07:10:40;;;;;;;7.63;5.83;;;;;;;18.39;100.00;96384.78;5006083;28;20204;-75
2022/08/30 07:13:08;;;;;;;8.60;5.75;;;;;;;18.45;100.00;96383.69;5007578;28;20423;-75
2022/08/30 07:15:35;;;;;;;7.43;5.40;;;;;;;18.56;100.00;96378.97;5013421;28;20231;-74
2022/08/30 07:20:47;;;;;;;6.80;5.60;;;;;;;18.79;100.00;96384.66;4997555;28;20240;-76
2022/08/30 07:23:14;;;;;;;7.07;5.47;;;;;;;18.82;100.00;96373.13;5000462;28;20208;-74
2022/08/30 07:25:42;;;;;;;7.93;5.28;;;;;;;18.91;100.00;96376.09;5019052;28;20305;-76
2022/08/30 07:28:10;;;;;;;7.72;5.95;;;;;;;19.00;100.00;96370.84;5020944;28;20423;-75
2022/08/30 07:30:38;;;;;;;7.97;5.20;;;;;;;19.04;100.00;96364.53;5003082;28;20199;-75
2022/08/30 07:33:05;;;;;;;5.50;4.90;;;;;;;19.07;100.00;96360.41;5006348;28;20199;-75
2022/08/30 07:35:32;;;;;;;6.40;5.70;;;;;;;19.13;100.00;96367.50;5020075;28;20218;-75
2022/08/30 07:38:00;;;;;;;14.65;6.03;;;;;;;19.21;100.00;96359.50;5003526;28;20243;-76
2022/08/30 07:40:27;;;;;;;7.72;6.18;;;;;;;19.32;100.00;96360.22;5006373;28;20239;-76
2022/08/30 07:42:56;;;;;;;6.78;5.90;;;;;;;19.42;100.00;96360.16;5005292;28;20223;-75
2022/08/30 07:45:23;;;;;;;10.18;7.20;;;;;;;19.53;100.00;96355.44;5020315;28;20220;-75
2022/08/30 07:47:50;;;;;;;7.35;6.53;;;;;;;19.63;100.00;96358.91;5008307;28;20207;-75
2022/08/30 07:50:17;;;;;;;6.03;5.43;;;;;;;19.80;100.00;96354.94;5009934;28;20211;-75
2022/08/30 07:52:44;;;;;;;6.78;6.07;;;;;;;19.89;100.00;96361.44;5007968;28;20258;-75
2022/08/30 07:55:11;;;;;;;7.90;6.20;;;;;;;19.98;100.00;96352.28;5005222;28;20298;-76
2022/08/30 07:57:38;;;;;;;6.22;5.63;;;;;;;20.27;100.00;96360.47;5006506;28;20234;-76
2022/08/30 08:00:08;;;;;;;9.13;5.82;;;;;;;20.64;100.00;96359.78;5005910;28;20234;-75
2022/08/30 08:02:39;;;;;;;6.82;5.90;;;;;;;20.94;100.00;96353.06;5006138;28;20207;-74
2022/08/30 08:05:08;;;;;;;7.60;5.70;;;;;;;21.19;100.00;96353.81;5002303;28;20219;-75
2022/08/30 08:07:35;;;;;;;5.82;5.22;;;;;;;21.39;100.00;96356.25;5018361;28;20223;-74
2022/08/30 08:10:02;;;;;;;5.80;5.03;;;;;;;21.56;100.00;96358.47;5000186;28;20215;-75
2022/08/30 08:12:29;;;;;;;6.10;5.60;;;;;;;21.75;100.00;96357.31;5001863;28;20207;-75
2022/08/30 08:14:56;;;;;;;6.43;5.15;;;;;;;21.86;100.00;96352.47;5018023;28;20263;-74
2022/08/30 08:17:25;;;;;;;5.97;5.28;;;;;;;21.94;100.00;96345.47;5007668;28;20207;-74
2022/08/30 08:19:52;;;;;;;6.20;5.00;;;;;;;22.12;100.00;96345.38;5004218;28;20215;-74
2022/08/30 08:22:19;;;;;;;6.70;5.70;;;;;;;22.26;99.29;96334.41;5003676;28;20209;-75
2022/08/30 08:24:46;;;;;;;6.22;5.53;;;;;;;22.34;96.47;96333.72;5006418;28;20223;-75
2022/08/30 08:27:13;;;;;;;7.60;5.88;;;;;;;22.48;97.50;96322.69;5003777;28;20204;-74
2022/08/30 08:29:41;;;;;;;5.78;5.13;;;;;;;22.48;96.22;96331.75;5019494;28;20215;-76
2022/08/30 08:32:08;;;;;;;6.80;5.30;;;;;;;22.44;91.78;96324.44;5014648;28;20218;-75
2022/08/30 08:34:36;;;;;;;6.10;5.13;;;;;;;22.54;92.38;96324.25;5004535;28;20261;-75
2022/08/30 08:37:03;;;;;;;5.97;5.45;;;;;;;22.65;90.53;96328.38;5001742;28;20223;-74
2022/08/30 08:39:31;;;;;;;5.13;4.70;;;;;;;22.78;90.66;96321.28;5021212;28;20211;-75
2022/08/30 08:42:06;;;;;;;5.78;4.95;;;;;;;22.84;90.04;96322.78;5005148;28;20223;-74
2022/08/30 08:44:47;;;;;;;5.80;5.05;;;;;;;22.91;91.45;96325.94;5005938;28;20226;-75
2022/08/30 08:47:17;;;;;;;5.45;4.95;;;;;;;22.91;91.85;96334.19;5022552;28;20222;-76
2022/08/30 08:49:49;;;;;;;6.28;5.20;;;;;;;22.84;89.33;96333.78;5018386;28;20207;-76
2022/08/30 08:55:11;;;;;;;5.47;4.95;;;;;;;22.99;94.01;96325.19;5020442;28;20212;-75
2022/08/30 08:57:38;;;;;;;5.68;5.07;;;;;;;23.14;90.59;96333.09;5000812;28;20224;-75
2022/08/30 09:00:07;;;;;;;5.97;5.03;;;;;;;23.46;88.69;96334.03;5020498;28;20236;-75
2022/08/30 09:02:41;;;;;;;5.97;5.38;;;;;;;23.70;84.54;96332.63;5019689;28;20212;-74
2022/08/30 09:05:14;;;;;;;5.13;4.70;;;;;;;23.96;82.32;96331.94;5018404;28;20227;-75
2022/08/30 09:07:45;;;;;;;5.90;4.82;;;;;;;24.16;81.23;96322.34;5009319;28;20207;-75
2022/08/30 09:10:12;;;;;;;6.15;5.07;;;;;;;24.23;77.64;96325.47;5016606;28;20306;-75
2022/08/30 09:12:39;;;;;;;7.93;5.70;;;;;;;24.16;77.54;96330.59;5021242;28;20214;-77
2022/08/30 09:15:11;;;;;;;5.55;4.82;;;;;;;24.14;75.66;96328.97;5004966;28;20286;-75
2022/08/30 09:17:54;;;;;;;7.15;4.82;;;;;;;24.11;72.59;96334.28;5018400;28;20203;-77
2022/08/30 09:20:30;;;;;;;6.00;5.03;;;;;;;24.10;76.09;96339.00;5001821;28;20219;-75
2022/08/30 09:22:59;;;;;;;7.03;5.60;;;;;;;24.24;77.60;96344.47;5017241;28;20209;-75
2022/08/30 09:25:29;;;;;;;5.63;5.13;;;;;;;24.38;79.96;96345.19;5006190;28;20230;-75
2022/08/30 09:28:10;;;;;;;5.63;5.13;;;;;;;24.47;78.23;96348.78;5001149;28;20294;-76
2022/08/30 09:30:37;;;;;;;8.10;6.40;;;;;;;24.54;78.92;96341.97;5003477;28;20207;-75
2022/08/30 09:33:07;;;;;;;5.63;5.05;;;;;;;24.69;81.86;96342.34;4997704;28;20218;-75
2022/08/30 09:35:39;;;;;;;8.98;5.50;;;;;;;24.75;82.43;96343.81;4999600;28;20206;-75
2022/08/30 09:38:09;;;;;;;6.28;5.68;;;;;;;24.88;82.82;96347.59;5000202;28;20266;-75
2022/08/30 09:40:41;;;;;;;6.55;5.32;;;;;;;24.93;80.92;96335.59;5003323;28;20278;-76
2022/08/30 09:43:11;;;;;;;8.10;5.25;;;;;;;25.05;80.43;96342.13;5014115;28;20215;-74
2022/08/30 09:45:40;;;;;;;6.85;5.32;;;;;;;25.26;77.40;96345.09;5001013;28;20219;-77
2022/08/30 09:48:30;;;;;;;5.90;5.32;;;;;;;25.30;78.20;96343.28;5008347;28;20207;-73
2022/08/30 09:51:30;;;;;;;6.82;5.40;;;;;;;25.48;74.52;96342.16;5008818;28;20271;-76
2022/08/30 09:54:10;;;;;;;7.72;5.22;;;;;;;25.44;72.96;96338.41;5005705;28;20354;-75
2022/08/30 09:56:43;;;;;;;6.65;5.22;;;;;;;25.39;74.99;96326.72;5006391;28;20246;-75
2022/08/30 09:59:22;;;;;;;5.82;5.22;;;;;;;25.26;74.83;96336.81;5014468;28;20215;-75
2022/08/30 10:02:00;;;;;;;5.55;5.00;;;;;;;25.27;72.54;96335.66;5001567;28;20211;-75
2022/08/30 10:04:36;;;;;;;5.80;5.20;;;;;;;25.23;74.62;96340.22;5001769;28;20203;-75
2022/08/30 10:07:10;;;;;;;6.15;5.50;;;;;;;25.32;75.01;96334.69;5024017;28;20215;-75
2022/08/30 10:09:45;;;;;;;7.90;5.10;;;;;;;25.32;74.88;96335.50;5018697;28;20301;-75
2022/08/30 10:12:19;;;;;;;5.82;5.28;;;;;;;25.32;74.27;96324.44;4997187;28;20207;-75
2022/08/30 10:15:02;;;;;;;5.95;5.35;;;;;;;25.24;75.13;96325.25;5020971;28;20268;-75
2022/08/30 10:17:42;;;;;;;6.38;5.13;;;;;;;25.19;74.44;96340.03;5007571;28;20199;-75
2022/08/30 10:20:19;;;;;;;5.70;5.20;;;;;;;25.37;75.72;96332.56;5014851;28;20306;-78
2022/08/30 10:22:54;;;;;;;6.82;5.65;;;;;;;25.69;74.69;96333.25;4998489;28;20223;-75
2022/08/30 10:25:28;;;;;;;7.07;5.70;;;;;;;25.83;73.76;96328.34;5020417;28;20227;-75
2022/08/30 10:28:00;;;;;;;7.78;6.00;;;;;;;26.03;74.48;96321.31;5006533;28;20199;-77
2022/08/30 10:30:30;;;;;;;6.63;6.03;;;;;;;26.33;74.53;96317.47;4991807;28;20215;-75
2022/08/30 10:33:05;;;;;;;7.40;5.70;;;;;;;26.51;74.19;96305.19;5020460;28;20243;-75
2022/08/30 10:35:37;;;;;;;6.35;5.75;;;;;;;26.54;73.86;96309.25;5010077;28;20215;-75
2022/08/30 10:38:10;;;;;;;6.30;5.78;;;;;;;26.65;73.75;96311.28;5002494;28;20240;-75
2022/08/30 10:43:33;;;;;;;6.30;5.47;;;;;;;26.66;72.47;96314.88;5005316;28;20215;-76
2022/08/30 10:46:03;;;;;;;6.20;5.60;;;;;;;26.60;69.29;96314.25;5023055;28;20231;-76
2022/08/30 10:48:36;;;;;;;7.10;6.20;;;;;;;26.68;69.97;96316.16;5015779;28;20303;-75
2022/08/30 10:51:10;;;;;;;6.40;5.80;;;;;;;26.73;69.81;96307.66;5023625;28;20212;-75
2022/08/30 10:53:43;;;;;;;7.97;5.80;;;;;;;26.69;68.78;96300.34;5009361;28;20203;-76
2022/08/30 10:56:14;;;;;;;6.18;5.68;;;;;;;26.75;70.07;96293.47;5025387;28;20344;-76
2022/08/30 10:58:42;;;;;;;6.32;5.78;;;;;;;26.77;71.16;96293.13;5019538;28;20208;-75
2022/08/30 11:01:22;;;;;;;6.45;5.90;;;;;;;26.85;70.52;96293.09;5014186;28;20204;-76
2022/08/30 11:04:25;;;;;;;6.55;5.85;;;;;;;26.84;71.57;96283.16;5020960;28;20218;-76
2022/08/30 11:07:02;;;;;;;6.60;6.00;;;;;;;26.63;71.08;96282.28;5009933;28;20285;-76
2022/08/30 11:09:49;;;;;;;6.55;5.95;;;;;;;26.83;72.60;96284.28;5010221;28;20199;-76
2022/08/30 11:12:33;;;;;;;6.70;6.00;;;;;;;26.83;69.51;96284.28;5026653;28;20215;-76
2022/08/30 11:15:11;;;;;;;8.68;5.97;;;;;;;26.43;73.83;96275.56;5007690;28;20219;-76
2022/08/30 11:17:45;;;;;;;6.28;5.68;;;;;;;26.49;71.36;96263.16;5006770;28;20318;-76
2022/08/30 11:20:24;;;;;;;7.25;5.97;;;;;;;26.77;70.97;96268.22;5023299;28;20262;-76
2022/08/30 11:23:21;;;;;;;6.07;5.57;;;;;;;27.03;71.39;96264.16;5012404;28;20290;-75
2022/08/30 11:25:52;;;;;;;7.35;5.93;;;;;;;27.23;70.39;96258.91;5017600;28;20508;-75
2022/08/30 11:28:56;;;;;;;8.38;5.70;;;;;;;27.57;68.15;96258.63;5023131;28;20215;-75
2022/08/30 11:31:36;;;;;;;7.13;5.63;;;;;;;27.79;67.46;96258.25;5021781;28;20211;-76
2022/08/30 11:34:04;;;;;;;6.72;5.70;;;;;;;28.04;66.03;96258.28;5013845;28;20264;-76
2022/08/30 11:37:05;;;;;;;6.07;5.57;;;;;;;28.12;64.66;96255.41;5002405;28;20210;-75
2022/08/30 11:39:55;;;;;;;6.60;5.90;;;;;;;28.32;64.57;96244.59;5014194;28;20217;-76
2022/08/30 11:42:30;;;;;;;6.38;5.78;;;;;;;28.51;65.72;96253.94;5008176;28;20857;-76
2022/08/30 11:45:35;;;;;;;6.55;5.95;;;;;;;28.54;66.33;96231.03;5010863;28;20218;-76
2022/08/30 11:48:06;;;;;;;6.28;5.68;;;;;;;28.59;62.99;96239.13;5022533;28;20214;-75
2022/08/30 11:50:39;;;;;;;6.80;6.03;;;;;;;28.58;63.18;96231.16;5013048;28;20310;-76